sensor_id;sensor_type;location;lat;lon;timestamp;pressure;altitude;pressure_sealevel;temperature;humidity
42067;BME280;27734;47.028;28.820;2023-11-18T00:01:50;100013.70;;;4.89;80.45
42067;BME280;27734;47.028;28.820;2023-11-18T00:04:21;100000.48;;;4.84;80.53
42067;BME280;27734;47.028;28.820;2023-11-18T00:06:53;99998.48;;;4.79;80.92
42067;BME280;27734;47.028;28.820;2023-11-18T00:09:24;99995.56;;;4.73;80.57
42067;BME280;27734;47.028;28.820;2023-11-18T00:11:56;99987.53;;;4.68;80.63
42067;BME280;27734;47.028;28.820;2023-11-18T00:14:28;99993.45;;;4.65;80.56
42067;BME280;27734;47.028;28.820;2023-11-18T00:16:59;100000.37;;;4.65;80.87
42067;BME280;27734;47.028;28.820;2023-11-18T00:19:32;100009.73;;;4.61;81.61
42067;BME280;27734;47.028;28.820;2023-11-18T00:22:04;100003.45;;;4.58;81.03
42067;BME280;27734;47.028;28.820;2023-11-18T00:24:36;100003.37;;;4.56;81.18
42067;BME280;27734;47.028;28.820;2023-11-18T00:27:08;100000.63;;;4.53;80.90
42067;BME280;27734;47.028;28.820;2023-11-18T00:29:41;100009.25;;;4.52;81.15
42067;BME280;27734;47.028;28.820;2023-11-18T00:32:13;99999.73;;;4.53;81.03
42067;BME280;27734;47.028;28.820;2023-11-18T00:34:45;100002.34;;;4.53;80.96
42067;BME280;27734;47.028;28.820;2023-11-18T00:37:16;99997.94;;;4.52;82.79
42067;BME280;27734;47.028;28.820;2023-11-18T00:39:48;99984.63;;;4.45;81.54
42067;BME280;27734;47.028;28.820;2023-11-18T00:42:19;99986.19;;;4.42;81.81
42067;BME280;27734;47.028;28.820;2023-11-18T00:44:51;99983.59;;;4.42;81.60
42067;BME280;27734;47.028;28.820;2023-11-18T00:47:25;99978.39;;;4.42;81.93
42067;BME280;27734;47.028;28.820;2023-11-18T00:49:57;99962.81;;;4.42;82.13
42067;BME280;27734;47.028;28.820;2023-11-18T00:52:31;99961.84;;;4.40;81.94
42067;BME280;27734;47.028;28.820;2023-11-18T00:55:04;99956.41;;;4.35;81.72
42067;BME280;27734;47.028;28.820;2023-11-18T00:57:37;99962.33;;;4.32;82.12
42067;BME280;27734;47.028;28.820;2023-11-18T01:00:13;99958.02;;;4.33;82.46
42067;BME280;27734;47.028;28.820;2023-11-18T01:02:46;99955.42;;;4.33;82.03
42067;BME280;27734;47.028;28.820;2023-11-18T01:05:18;99957.13;;;4.32;82.35
42067;BME280;27734;47.028;28.820;2023-11-18T01:07:50;99953.66;;;4.32;81.45
42067;BME280;27734;47.028;28.820;2023-11-18T01:10:22;99945.78;;;4.30;82.07
42067;BME280;27734;47.028;28.820;2023-11-18T01:12:54;99935.23;;;4.27;82.17
42067;BME280;27734;47.028;28.820;2023-11-18T01:15:27;99935.00;;;4.23;81.92
42067;BME280;27734;47.028;28.820;2023-11-18T01:18:02;99938.31;;;4.20;83.21
42067;BME280;27734;47.028;28.820;2023-11-18T01:20:34;99938.98;;;4.16;84.37
42067;BME280;27734;47.028;28.820;2023-11-18T01:23:06;99943.11;;;4.12;83.37
42067;BME280;27734;47.028;28.820;2023-11-18T01:25:37;99948.37;;;4.14;83.10
42067;BME280;27734;47.028;28.820;2023-11-18T01:28:10;99953.66;;;4.16;82.46
42067;BME280;27734;47.028;28.820;2023-11-18T01:30:42;99965.75;;;4.15;82.89
42067;BME280;27734;47.028;28.820;2023-11-18T01:33:14;99971.91;;;4.17;83.18
42067;BME280;27734;47.028;28.820;2023-11-18T01:35:51;99978.19;;;4.21;82.77
42067;BME280;27734;47.028;28.820;2023-11-18T01:38:22;99980.83;;;4.22;82.78
42067;BME280;27734;47.028;28.820;2023-11-18T01:40:56;99981.91;;;4.26;83.10
42067;BME280;27734;47.028;28.820;2023-11-18T01:43:28;99981.16;;;4.28;83.01
42067;BME280;27734;47.028;28.820;2023-11-18T01:46:00;99963.97;;;4.30;83.22
42067;BME280;27734;47.028;28.820;2023-11-18T01:48:34;99968.33;;;4.31;82.67
42067;BME280;27734;47.028;28.820;2023-11-18T01:51:08;99959.66;;;4.31;82.98
42067;BME280;27734;47.028;28.820;2023-11-18T01:53:43;99947.55;;;4.31;82.99
42067;BME280;27734;47.028;28.820;2023-11-18T01:56:15;99940.67;;;4.32;82.84
42067;BME280;27734;47.028;28.820;2023-11-18T01:58:47;99942.35;;;4.31;83.12
42067;BME280;27734;47.028;28.820;2023-11-18T02:01:20;99959.73;;;4.32;82.58
42067;BME280;27734;47.028;28.820;2023-11-18T02:12:29;99985.87;;;4.36;83.09
42067;BME280;27734;47.028;28.820;2023-11-18T02:15:07;99982.39;;;4.35;83.22
42067;BME280;27734;47.028;28.820;2023-11-18T02:17:43;99962.48;;;4.36;83.36
42067;BME280;27734;47.028;28.820;2023-11-18T02:20:16;99967.69;;;4.36;83.59
42067;BME280;27734;47.028;28.820;2023-11-18T02:22:51;99971.08;;;4.35;83.50
42067;BME280;27734;47.028;28.820;2023-11-18T02:28:04;99970.20;;;4.34;83.35
42067;BME280;27734;47.028;28.820;2023-11-18T02:30:36;99974.59;;;4.35;83.45
42067;BME280;27734;47.028;28.820;2023-11-18T02:33:13;99971.00;;;4.33;83.30
42067;BME280;27734;47.028;28.820;2023-11-18T02:35:53;99973.52;;;4.31;83.80
42067;BME280;27734;47.028;28.820;2023-11-18T02:38:31;99973.36;;;4.28;83.34
42067;BME280;27734;47.028;28.820;2023-11-18T02:41:09;99968.92;;;4.26;84.00
42067;BME280;27734;47.028;28.820;2023-11-18T02:43:41;99965.48;;;4.27;83.76
42067;BME280;27734;47.028;28.820;2023-11-18T02:46:16;99965.56;;;4.28;84.02
42067;BME280;27734;47.028;28.820;2023-11-18T02:48:49;99967.12;;;4.25;83.93
42067;BME280;27734;47.028;28.820;2023-11-18T02:51:24;99975.16;;;4.29;83.83
42067;BME280;27734;47.028;28.820;2023-11-18T02:53:56;99978.55;;;4.28;83.17
42067;BME280;27734;47.028;28.820;2023-11-18T02:56:28;99985.47;;;4.28;83.81
42067;BME280;27734;47.028;28.820;2023-11-18T02:59:00;99965.33;;;4.24;83.98
42067;BME280;27734;47.028;28.820;2023-11-18T03:01:35;99971.99;;;4.19;83.28
42067;BME280;27734;47.028;28.820;2023-11-18T03:04:09;99972.75;;;4.16;83.54
42067;BME280;27734;47.028;28.820;2023-11-18T03:06:40;99972.75;;;4.16;83.64
42067;BME280;27734;47.028;28.820;2023-11-18T03:09:12;99974.42;;;4.16;83.92
42067;BME280;27734;47.028;28.820;2023-11-18T03:11:45;99987.49;;;4.17;84.18
42067;BME280;27734;47.028;28.820;2023-11-18T03:14:16;99981.42;;;4.17;84.07
42067;BME280;27734;47.028;28.820;2023-11-18T03:16:49;99982.14;;;4.14;84.22
42067;BME280;27734;47.028;28.820;2023-11-18T03:19:20;99990.92;;;4.16;84.07
42067;BME280;27734;47.028;28.820;2023-11-18T03:21:53;99993.60;;;4.18;83.95
42067;BME280;27734;47.028;28.820;2023-11-18T03:24:26;99996.12;;;4.16;83.71
42067;BME280;27734;47.028;28.820;2023-11-18T03:26:58;99995.20;;;4.16;84.08
42067;BME280;27734;47.028;28.820;2023-11-18T03:29:31;99997.88;;;4.17;83.86
42067;BME280;27734;47.028;28.820;2023-11-18T03:32:03;99989.12;;;4.15;84.32
42067;BME280;27734;47.028;28.820;2023-11-18T03:34:35;99994.48;;;4.18;84.48
42067;BME280;27734;47.028;28.820;2023-11-18T03:37:07;99997.16;;;4.20;84.20
42067;BME280;27734;47.028;28.820;2023-11-18T03:39:39;100005.03;;;4.21;84.35
42067;BME280;27734;47.028;28.820;2023-11-18T03:42:10;100007.63;;;4.21;84.37
42067;BME280;27734;47.028;28.820;2023-11-18T03:44:42;100009.34;;;4.21;83.69
42067;BME280;27734;47.028;28.820;2023-11-18T03:47:14;100012.83;;;4.21;84.30
42067;BME280;27734;47.028;28.820;2023-11-18T03:49:45;100006.75;;;4.21;84.50
42067;BME280;27734;47.028;28.820;2023-11-18T03:52:17;100017.14;;;4.21;84.34
42067;BME280;27734;47.028;28.820;2023-11-18T03:54:48;100013.63;;;4.20;83.94
42067;BME280;27734;47.028;28.820;2023-11-18T03:57:20;100023.22;;;4.21;83.78
42067;BME280;27734;47.028;28.820;2023-11-18T04:02:41;100024.02;;;4.20;84.43
42067;BME280;27734;47.028;28.820;2023-11-18T04:05:13;100027.58;;;4.22;84.10
42067;BME280;27734;47.028;28.820;2023-11-18T04:07:44;100020.62;;;4.21;84.78
42067;BME280;27734;47.028;28.820;2023-11-18T04:10:17;100015.26;;;4.18;84.08
42067;BME280;27734;47.028;28.820;2023-11-18T04:12:50;100025.48;;;4.15;84.73
42067;BME280;27734;47.028;28.820;2023-11-18T04:15:22;100018.16;;;4.08;84.58
42067;BME280;27734;47.028;28.820;2023-11-18T04:17:54;100010.05;;;4.02;84.68
42067;BME280;27734;47.028;28.820;2023-11-18T04:20:26;100007.20;;;3.97;84.32
42067;BME280;27734;47.028;28.820;2023-11-18T04:22:57;100018.41;;;3.96;84.31
42067;BME280;27734;47.028;28.820;2023-11-18T04:25:29;100017.41;;;3.94;84.72
42067;BME280;27734;47.028;28.820;2023-11-18T04:28:01;100027.71;;;3.92;84.19
42067;BME280;27734;47.028;28.820;2023-11-18T04:30:34;100020.59;;;3.88;84.61
42067;BME280;27734;47.028;28.820;2023-11-18T04:33:06;100017.91;;;3.87;85.19
42067;BME280;27734;47.028;28.820;2023-11-18T04:35:38;100016.99;;;3.86;84.68
42067;BME280;27734;47.028;28.820;2023-11-18T04:38:10;100006.61;;;3.86;84.53
42067;BME280;27734;47.028;28.820;2023-11-18T04:40:42;100019.67;;;3.88;84.40
42067;BME280;27734;47.028;28.820;2023-11-18T04:43:14;100019.50;;;3.85;84.85
42067;BME280;27734;47.028;28.820;2023-11-18T04:45:46;100023.64;;;3.81;85.66
42067;BME280;27734;47.028;28.820;2023-11-18T04:48:17;100025.98;;;3.76;84.92
42067;BME280;27734;47.028;28.820;2023-11-18T04:50:51;100025.81;;;3.73;85.04
42067;BME280;27734;47.028;28.820;2023-11-18T04:53:22;100031.17;;;3.76;84.67
42067;BME280;27734;47.028;28.820;2023-11-18T04:55:55;100031.09;;;3.75;85.12
42067;BME280;27734;47.028;28.820;2023-11-18T04:58:27;100025.91;;;3.75;84.96
42067;BME280;27734;47.028;28.820;2023-11-18T05:00:58;100027.36;;;3.70;84.95
42067;BME280;27734;47.028;28.820;2023-11-18T05:03:30;100026.44;;;3.69;85.03
42067;BME280;27734;47.028;28.820;2023-11-18T05:06:01;100031.62;;;3.69;84.95
42067;BME280;27734;47.028;28.820;2023-11-18T05:08:34;100029.78;;;3.67;85.29
42067;BME280;27734;47.028;28.820;2023-11-18T05:11:07;100041.79;;;3.65;84.61
42067;BME280;27734;47.028;28.820;2023-11-18T05:13:38;100041.79;;;3.65;85.10
42067;BME280;27734;47.028;28.820;2023-11-18T05:16:11;100030.41;;;3.63;85.51
42067;BME280;27734;47.028;28.820;2023-11-18T05:18:44;100034.89;;;3.65;85.44
42067;BME280;27734;47.028;28.820;2023-11-18T05:21:15;100043.38;;;3.63;85.03
42067;BME280;27734;47.028;28.820;2023-11-18T05:23:47;100037.22;;;3.60;85.46
42067;BME280;27734;47.028;28.820;2023-11-18T05:26:19;100044.04;;;3.58;85.38
42067;BME280;27734;47.028;28.820;2023-11-18T05:28:50;100048.31;;;3.58;85.08
42067;BME280;27734;47.028;28.820;2023-11-18T05:31:22;100059.52;;;3.57;85.52
42067;BME280;27734;47.028;28.820;2023-11-18T05:33:53;100056.66;;;3.52;85.77
42067;BME280;27734;47.028;28.820;2023-11-18T05:36:25;100048.70;;;3.49;85.45
42067;BME280;27734;47.028;28.820;2023-11-18T05:39:00;100060.41;;;3.42;86.56
42067;BME280;27734;47.028;28.820;2023-11-18T05:41:32;100066.34;;;3.40;85.89
42067;BME280;27734;47.028;28.820;2023-11-18T05:44:05;100070.43;;;3.36;86.37
42067;BME280;27734;47.028;28.820;2023-11-18T05:46:39;100083.31;;;3.35;87.51
42067;BME280;27734;47.028;28.820;2023-11-18T05:49:10;100076.18;;;3.31;86.98
42067;BME280;27734;47.028;28.820;2023-11-18T05:51:43;100076.18;;;3.31;86.48
42067;BME280;27734;47.028;28.820;2023-11-18T05:54:15;100077.95;;;3.32;86.38
42067;BME280;27734;47.028;28.820;2023-11-18T05:56:46;100076.18;;;3.31;86.76
42067;BME280;27734;47.028;28.820;2023-11-18T05:59:18;100087.34;;;3.30;87.62
42067;BME280;27734;47.028;28.820;2023-11-18T06:01:49;100087.34;;;3.30;87.33
42067;BME280;27734;47.028;28.820;2023-11-18T06:04:21;100089.85;;;3.28;87.21
42067;BME280;27734;47.028;28.820;2023-11-18T06:06:53;100092.27;;;3.25;87.37
42067;BME280;27734;47.028;28.820;2023-11-18T06:09:25;100092.97;;;3.22;87.94
42067;BME280;27734;47.028;28.820;2023-11-18T06:11:58;100099.69;;;3.19;87.01
42067;BME280;27734;47.028;28.820;2023-11-18T06:14:30;100107.55;;;3.20;86.72
42067;BME280;27734;47.028;28.820;2023-11-18T06:17:02;100111.30;;;3.26;87.03
42067;BME280;27734;47.028;28.820;2023-11-18T06:19:34;100115.61;;;3.25;87.18
42067;BME280;27734;47.028;28.820;2023-11-18T06:22:06;100105.23;;;3.25;87.30
42067;BME280;27734;47.028;28.820;2023-11-18T06:24:37;100102.64;;;3.25;87.82
42067;BME280;27734;47.028;28.820;2023-11-18T06:27:09;100098.34;;;3.26;87.10
42067;BME280;27734;47.028;28.820;2023-11-18T06:29:42;100097.63;;;3.28;87.88
42067;BME280;27734;47.028;28.820;2023-11-18T06:32:21;100093.15;;;3.26;87.42
42067;BME280;27734;47.028;28.820;2023-11-18T06:34:55;100087.78;;;3.22;87.59
42067;BME280;27734;47.028;28.820;2023-11-18T06:37:33;100090.20;;;3.19;87.96
42067;BME280;27734;47.028;28.820;2023-11-18T06:40:06;100092.79;;;3.19;87.85
42067;BME280;27734;47.028;28.820;2023-11-18T06:42:46;100092.88;;;3.21;87.74
42067;BME280;27734;47.028;28.820;2023-11-18T06:45:18;100092.97;;;3.22;87.99
42067;BME280;27734;47.028;28.820;2023-11-18T06:47:52;100102.73;;;3.27;88.02
42067;BME280;27734;47.028;28.820;2023-11-18T06:50:24;100104.70;;;3.31;88.59
42067;BME280;27734;47.028;28.820;2023-11-18T06:52:57;100091.74;;;3.31;88.61
42067;BME280;27734;47.028;28.820;2023-11-18T06:55:28;100097.98;;;3.34;87.39
42067;BME280;27734;47.028;28.820;2023-11-18T06:58:00;100098.78;;;3.33;89.22
42067;BME280;27734;47.028;28.820;2023-11-18T07:00:32;100100.49;;;3.33;88.29
42067;BME280;27734;47.028;28.820;2023-11-18T07:03:04;100103.97;;;3.33;88.28
42067;BME280;27734;47.028;28.820;2023-11-18T07:05:35;100111.14;;;3.37;88.45
42067;BME280;27734;47.028;28.820;2023-11-18T07:08:07;100112.20;;;3.41;88.47
42067;BME280;27734;47.028;28.820;2023-11-18T07:10:39;100113.30;;;3.45;88.96
42067;BME280;27734;47.028;28.820;2023-11-18T07:13:11;100110.61;;;3.43;88.56
42067;BME280;27734;47.028;28.820;2023-11-18T07:15:43;100111.76;;;3.48;88.08
42067;BME280;27734;47.028;28.820;2023-11-18T07:18:14;100101.38;;;3.48;88.43
42067;BME280;27734;47.028;28.820;2023-11-18T07:20:46;100103.98;;;3.48;89.46
42067;BME280;27734;47.028;28.820;2023-11-18T07:23:18;100105.59;;;3.46;88.55
42067;BME280;27734;47.028;28.820;2023-11-18T07:25:49;100094.48;;;3.49;88.11
42067;BME280;27734;47.028;28.820;2023-11-18T07:28:21;100088.33;;;3.47;88.37
42067;BME280;27734;47.028;28.820;2023-11-18T07:30:53;100112.64;;;3.49;89.40
42067;BME280;27734;47.028;28.820;2023-11-18T07:33:25;100099.58;;;3.47;89.56
42067;BME280;27734;47.028;28.820;2023-11-18T07:35:56;100109.08;;;3.47;89.23
42067;BME280;27734;47.028;28.820;2023-11-18T07:38:28;100102.18;;;3.47;90.19
42067;BME280;27734;47.028;28.820;2023-11-18T07:41:01;100102.00;;;3.44;89.26
42067;BME280;27734;47.028;28.820;2023-11-18T07:43:32;100124.46;;;3.44;90.32
42067;BME280;27734;47.028;28.820;2023-11-18T07:46:06;100120.90;;;3.41;88.91
42067;BME280;27734;47.028;28.820;2023-11-18T07:48:38;100119.89;;;3.39;90.40
42067;BME280;27734;47.028;28.820;2023-11-18T07:51:10;100127.31;;;3.33;90.63
42067;BME280;27734;47.028;28.820;2023-11-18T07:53:44;100128.05;;;3.31;90.55
42067;BME280;27734;47.028;28.820;2023-11-18T07:56:15;100127.78;;;3.26;90.44
42067;BME280;27734;47.028;28.820;2023-11-18T07:58:47;100131.08;;;3.23;90.72
42067;BME280;27734;47.028;28.820;2023-11-18T08:01:19;100129.36;;;3.24;91.08
42067;BME280;27734;47.028;28.820;2023-11-18T08:03:51;100127.50;;;3.21;90.98
42067;BME280;27734;47.028;28.820;2023-11-18T08:06:23;100134.37;;;3.21;91.59
42067;BME280;27734;47.028;28.820;2023-11-18T08:08:56;100133.58;;;3.22;91.58
42067;BME280;27734;47.028;28.820;2023-11-18T08:11:27;100126.68;;;3.22;90.17
42067;BME280;27734;47.028;28.820;2023-11-18T08:13:59;100133.05;;;3.28;91.60
42067;BME280;27734;47.028;28.820;2023-11-18T08:16:32;100130.55;;;3.29;90.47
42067;BME280;27734;47.028;28.820;2023-11-18T08:19:04;100135.73;;;3.29;90.74
42067;BME280;27734;47.028;28.820;2023-11-18T08:21:38;100133.84;;;3.27;91.68
42067;BME280;27734;47.028;28.820;2023-11-18T08:24:10;100133.05;;;3.28;91.16
42067;BME280;27734;47.028;28.820;2023-11-18T08:26:42;100134.12;;;3.31;91.93
42067;BME280;27734;47.028;28.820;2023-11-18T08:29:14;100136.72;;;3.31;91.93
42067;BME280;27734;47.028;28.820;2023-11-18T08:31:46;100133.33;;;3.32;92.32
42067;BME280;27734;47.028;28.820;2023-11-18T08:34:18;100135.00;;;3.32;92.54
42067;BME280;27734;47.028;28.820;2023-11-18T08:36:49;100139.13;;;3.28;91.90
42067;BME280;27734;47.028;28.820;2023-11-18T08:39:22;100134.82;;;3.29;91.83
42067;BME280;27734;47.028;28.820;2023-11-18T08:41:55;100141.02;;;3.31;91.99
42067;BME280;27734;47.028;28.820;2023-11-18T08:44:27;100148.80;;;3.31;91.61
42067;BME280;27734;47.028;28.820;2023-11-18T08:46:58;100137.50;;;3.30;91.16
42067;BME280;27734;47.028;28.820;2023-11-18T08:49:31;100145.20;;;3.29;92.35
42067;BME280;27734;47.028;28.820;2023-11-18T08:52:04;100130.38;;;3.26;91.66
42067;BME280;27734;47.028;28.820;2023-11-18T08:54:40;100138.06;;;3.24;92.24
42067;BME280;27734;47.028;28.820;2023-11-18T08:57:31;100126.86;;;3.26;91.78
42067;BME280;27734;47.028;28.820;2023-11-18T09:00:18;100132.88;;;3.24;92.78
42067;BME280;27734;47.028;28.820;2023-11-18T09:03:04;100129.27;;;3.22;92.60
42067;BME280;27734;47.028;28.820;2023-11-18T09:05:36;100119.73;;;3.21;91.94
42067;BME280;27734;47.028;28.820;2023-11-18T09:08:08;100115.52;;;3.23;92.52
42067;BME280;27734;47.028;28.820;2023-11-18T09:10:40;100124.91;;;3.21;93.60
42067;BME280;27734;47.028;28.820;2023-11-18T09:13:13;100121.58;;;3.24;93.04
42067;BME280;27734;47.028;28.820;2023-11-18T09:15:44;100123.47;;;3.27;91.96
42067;BME280;27734;47.028;28.820;2023-11-18T09:18:18;100117.58;;;3.29;92.17
42067;BME280;27734;47.028;28.820;2023-11-18T09:20:51;100118.65;;;3.33;92.17
42067;BME280;27734;47.028;28.820;2023-11-18T09:23:25;100121.42;;;3.36;92.25
42067;BME280;27734;47.028;28.820;2023-11-18T09:25:57;100118.21;;;3.40;91.90
42067;BME280;27734;47.028;28.820;2023-11-18T09:28:29;100104.42;;;3.41;92.27
42067;BME280;27734;47.028;28.820;2023-11-18T09:31:00;100102.83;;;3.43;92.77
42067;BME280;27734;47.028;28.820;2023-11-18T09:33:33;100091.71;;;3.46;92.65
42067;BME280;27734;47.028;28.820;2023-11-18T09:36:07;100091.71;;;3.46;93.24
42067;BME280;27734;47.028;28.820;2023-11-18T09:38:42;100090.03;;;3.46;92.70
42067;BME280;27734;47.028;28.820;2023-11-18T09:41:17;100086.70;;;3.49;92.35
42067;BME280;27734;47.028;28.820;2023-11-18T09:43:48;100085.20;;;3.52;92.46
42067;BME280;27734;47.028;28.820;2023-11-18T09:46:25;100072.41;;;3.55;91.59
42067;BME280;27734;47.028;28.820;2023-11-18T09:49:13;100084.55;;;3.56;92.37
42067;BME280;27734;47.028;28.820;2023-11-18T09:51:48;100081.16;;;3.57;92.53
42067;BME280;27734;47.028;28.820;2023-11-18T09:54:25;100069.98;;;3.58;92.27
42067;BME280;27734;47.028;28.820;2023-11-18T09:57:07;100076.23;;;3.62;92.78
42067;BME280;27734;47.028;28.820;2023-11-18T09:59:46;100065.94;;;3.64;92.54
42067;BME280;27734;47.028;28.820;2023-11-18T10:02:25;100065.31;;;3.68;92.26
42067;BME280;27734;47.028;28.820;2023-11-18T10:04:58;100068.88;;;3.70;91.54
42067;BME280;27734;47.028;28.820;2023-11-18T10:07:31;100056.08;;;3.73;92.27
42067;BME280;27734;47.028;28.820;2023-11-18T10:10:03;100062.23;;;3.75;92.06
42067;BME280;27734;47.028;28.820;2023-11-18T10:12:35;100058.84;;;3.76;92.14
42067;BME280;27734;47.028;28.820;2023-11-18T10:15:09;100054.62;;;3.78;92.36
42067;BME280;27734;47.028;28.820;2023-11-18T10:17:43;100046.83;;;3.78;91.81
42067;BME280;27734;47.028;28.820;2023-11-18T10:20:44;100055.59;;;3.80;92.28
42067;BME280;27734;47.028;28.820;2023-11-18T10:23:17;100046.03;;;3.79;91.62
42067;BME280;27734;47.028;28.820;2023-11-18T10:25:51;100049.59;;;3.81;92.62
42067;BME280;27734;47.028;28.820;2023-11-18T10:28:27;100047.80;;;3.80;92.17
42067;BME280;27734;47.028;28.820;2023-11-18T10:31:00;100053.99;;;3.82;91.88
42067;BME280;27734;47.028;28.820;2023-11-18T10:33:36;100057.47;;;3.83;91.84
42067;BME280;27734;47.028;28.820;2023-11-18T10:36:18;100054.70;;;3.80;91.96
42067;BME280;27734;47.028;28.820;2023-11-18T10:38:53;100045.13;;;3.78;91.79
42067;BME280;27734;47.028;28.820;2023-11-18T10:41:26;100067.59;;;3.78;92.64
42067;BME280;27734;47.028;28.820;2023-11-18T10:44:10;100055.33;;;3.75;92.14
42067;BME280;27734;47.028;28.820;2023-11-18T10:46:53;100054.28;;;3.72;92.69
42067;BME280;27734;47.028;28.820;2023-11-18T10:49:29;100070.91;;;3.75;91.99
42067;BME280;27734;47.028;28.820;2023-11-18T10:52:07;100088.09;;;3.73;93.67
42067;BME280;27734;47.028;28.820;2023-11-18T10:54:54;100081.02;;;3.71;92.41
42067;BME280;27734;47.028;28.820;2023-11-18T10:57:27;100080.94;;;3.69;92.89
42067;BME280;27734;47.028;28.820;2023-11-18T11:00:02;100088.80;;;3.71;92.19
42067;BME280;27734;47.028;28.820;2023-11-18T11:02:43;100093.91;;;3.69;93.15
42067;BME280;27734;47.028;28.820;2023-11-18T11:05:29;100087.75;;;3.67;92.30
42067;BME280;27734;47.028;28.820;2023-11-18T11:08:03;100089.47;;;3.67;92.76
42067;BME280;27734;47.028;28.820;2023-11-18T11:10:36;100095.63;;;3.69;92.82
42067;BME280;27734;47.028;28.820;2023-11-18T11:13:12;100088.72;;;3.69;92.68
42067;BME280;27734;47.028;28.820;2023-11-18T11:15:44;100092.86;;;3.66;92.85
42067;BME280;27734;47.028;28.820;2023-11-18T11:18:23;100105.66;;;3.63;93.08
42067;BME280;27734;47.028;28.820;2023-11-18T11:21:03;100105.30;;;3.56;93.02
42067;BME280;27734;47.028;28.820;2023-11-18T11:23:49;100109.34;;;3.51;92.45
42067;BME280;27734;47.028;28.820;2023-11-18T11:26:37;100110.14;;;3.50;93.01
42067;BME280;27734;47.028;28.820;2023-11-18T11:29:21;100118.57;;;3.46;93.95
42067;BME280;27734;47.028;28.820;2023-11-18T11:32:06;100117.39;;;3.41;93.06
42067;BME280;27734;47.028;28.820;2023-11-18T11:34:50;100115.63;;;3.40;92.97
42067;BME280;27734;47.028;28.820;2023-11-18T11:37:25;100110.25;;;3.37;93.83
42067;BME280;27734;47.028;28.820;2023-11-18T11:39:57;100111.66;;;3.32;94.09
42067;BME280;27734;47.028;28.820;2023-11-18T11:42:29;100116.40;;;3.24;92.95
42067;BME280;27734;47.028;28.820;2023-11-18T11:45:03;100116.13;;;3.19;94.59
42067;BME280;27734;47.028;28.820;2023-11-18T11:47:44;100116.68;;;3.14;93.78
42067;BME280;27734;47.028;28.820;2023-11-18T11:50:19;100112.11;;;3.10;93.92
42067;BME280;27734;47.028;28.820;2023-11-18T11:53:05;100112.66;;;3.04;94.30
42067;BME280;27734;47.028;28.820;2023-11-18T11:55:44;100106.92;;;2.95;93.97
42067;BME280;27734;47.028;28.820;2023-11-18T11:58:29;100111.19;;;2.94;93.81
42067;BME280;27734;47.028;28.820;2023-11-18T12:01:03;100112.80;;;2.92;94.33
42067;BME280;27734;47.028;28.820;2023-11-18T12:03:53;100105.73;;;2.90;93.41
42067;BME280;27734;47.028;28.820;2023-11-18T12:06:27;100115.13;;;2.87;93.98
42067;BME280;27734;47.028;28.820;2023-11-18T12:09:03;100110.64;;;2.85;94.28
42067;BME280;27734;47.028;28.820;2023-11-18T12:11:37;100112.16;;;2.81;94.02
42067;BME280;27734;47.028;28.820;2023-11-18T12:14:12;100111.97;;;2.78;93.68
42067;BME280;27734;47.028;28.820;2023-11-18T12:17:06;100112.58;;;2.74;94.89
42067;BME280;27734;47.028;28.820;2023-11-18T12:19:40;100110.63;;;2.70;95.65
42067;BME280;27734;47.028;28.820;2023-11-18T12:22:18;100113.91;;;2.67;95.73
42067;BME280;27734;47.028;28.820;2023-11-18T12:25:32;100111.86;;;2.62;95.26
42067;BME280;27734;47.028;28.820;2023-11-18T12:28:10;100110.85;;;2.60;96.34
42067;BME280;27734;47.028;28.820;2023-11-18T12:30:45;100110.57;;;2.55;95.62
42067;BME280;27734;47.028;28.820;2023-11-18T12:33:26;100111.58;;;2.57;95.89
42067;BME280;27734;47.028;28.820;2023-11-18T12:40:03;100106.49;;;2.59;95.61
42067;BME280;27734;47.028;28.820;2023-11-18T12:43:04;100096.92;;;2.58;96.29
42067;BME280;27734;47.028;28.820;2023-11-18T12:49:16;100092.91;;;2.63;95.53
42067;BME280;27734;47.028;28.820;2023-11-18T12:51:54;100101.75;;;2.66;96.17
42067;BME280;27734;47.028;28.820;2023-11-18T12:54:27;100101.05;;;2.69;95.80
42067;BME280;27734;47.028;28.820;2023-11-18T12:57:02;100100.45;;;2.73;95.57
42067;BME280;27734;47.028;28.820;2023-11-18T12:59:37;100096.15;;;2.74;95.94
42067;BME280;27734;47.028;28.820;2023-11-18T13:02:10;100088.47;;;2.75;96.08
42067;BME280;27734;47.028;28.820;2023-11-18T13:04:43;100086.34;;;2.83;96.26
42067;BME280;27734;47.028;28.820;2023-11-18T13:07:17;100091.89;;;2.89;96.59
42067;BME280;27734;47.028;28.820;2023-11-18T13:09:51;100085.00;;;2.90;97.17
42067;BME280;27734;47.028;28.820;2023-11-18T13:12:24;100080.83;;;2.92;97.67
42067;BME280;27734;47.028;28.820;2023-11-18T13:15:00;100083.50;;;2.93;97.44
42067;BME280;27734;47.028;28.820;2023-11-18T13:17:33;100084.57;;;2.97;99.41
42067;BME280;27734;47.028;28.820;2023-11-18T13:20:14;100071.70;;;2.98;97.20
42067;BME280;27734;47.028;28.820;2023-11-18T13:22:48;100070.17;;;3.02;97.99
42067;BME280;27734;47.028;28.820;2023-11-18T13:25:19;100082.34;;;3.03;98.04
42067;BME280;27734;47.028;28.820;2023-11-18T13:27:51;100071.97;;;3.03;97.67
42067;BME280;27734;47.028;28.820;2023-11-18T13:30:24;100082.44;;;3.04;97.57
42067;BME280;27734;47.028;28.820;2023-11-18T13:32:56;100085.12;;;3.06;97.69
42067;BME280;27734;47.028;28.820;2023-11-18T13:35:28;100079.05;;;3.05;97.86
42067;BME280;27734;47.028;28.820;2023-11-18T13:38:01;100086.91;;;3.07;98.62
42067;BME280;27734;47.028;28.820;2023-11-18T13:40:44;100095.84;;;3.12;98.14
42067;BME280;27734;47.028;28.820;2023-11-18T13:43:17;100100.23;;;3.13;98.42
42067;BME280;27734;47.028;28.820;2023-11-18T13:45:54;100102.92;;;3.15;99.40
42067;BME280;27734;47.028;28.820;2023-11-18T13:48:30;100100.48;;;3.18;98.79
42067;BME280;27734;47.028;28.820;2023-11-18T13:51:04;100108.34;;;3.19;98.34